Time;durP1;ratioP1;P1;durP2;ratioP2;P2;SDS_P1;SDS_P2;PMS_P1;PMS_P2;Temp;Humidity;BMP_temperature;BMP_pressure;BME280_temperature;BME280_humidity;BME280_pressure;Samples;Min_cycle;Max_cycle;Signal;HPM_P1;HPM_P2
2022/01/16 00:08:25;;;;;;;;;;;0.30;99.90;;;-0.56;100.00;96285.09;10457835;28;1830;-69
2022/01/16 00:13:28;;;;;;;;;;;0.40;99.90;;;-0.52;100.00;96305.81;10469001;28;1853;-69
2022/01/16 00:18:42;;;;;;;;;;;0.50;99.90;;;-0.44;100.00;96285.38;10456739;28;1906;-69
2022/01/16 00:23:45;;;;;;;;;;;0.60;99.90;;;-0.47;100.00;96275.19;10472545;28;1873;-69
2022/01/16 00:28:49;;;;;;;;;;;0.60;99.90;;;-0.47;100.00;96240.03;10497662;28;1886;-69
2022/01/16 00:33:53;;;;;;;;;;;0.60;99.90;;;-0.68;100.00;96262.84;10491014;28;1838;-70
2022/01/16 00:38:57;;;;;;;;;;;0.50;99.90;;;-0.61;100.00;96262.91;10486174;28;1949;-70
2022/01/16 00:44:00;;;;;;;;;;;0.40;99.90;;;-0.61;100.00;96276.09;10497972;28;1934;-70
2022/01/16 00:49:04;;;;;;;;;;;0.40;99.90;;;-0.47;100.00;96263.81;10503279;28;1844;-70
2022/01/16 00:54:07;;;;;;;;;;;0.50;99.90;;;-0.48;100.00;96260.34;10496611;28;1887;-70
2022/01/16 00:59:10;;;;;;;;;;;0.50;99.90;;;-0.32;100.00;96253.94;10490557;28;1906;-70
2022/01/16 01:04:14;;;;;;;;;;;0.60;99.90;;;-0.44;100.00;96261.63;10500565;28;1818;-70
2022/01/16 01:09:17;;;;;;;;;;;0.60;99.90;;;-0.40;100.00;96309.56;10500141;28;1881;-70
2022/01/16 01:14:25;;;;;;;;;;;0.60;99.90;;;-0.38;100.00;96296.97;10501726;28;1926;-70
2022/01/16 01:19:32;;;;;;;;;;;0.70;99.90;;;-0.36;100.00;96223.66;10478098;28;1963;-69
2022/01/16 01:24:36;;;;;;;;;;;0.60;99.90;;;-0.26;100.00;96205.63;10477198;28;1467;-69
2022/01/16 01:29:43;;;;;;;;;;;0.60;99.90;;;-0.44;100.00;96197.41;10476373;28;1853;-69
2022/01/16 01:34:45;;;;;;;;;;;0.60;99.90;;;-0.48;100.00;96247.16;10496477;28;1893;-69
2022/01/16 01:39:49;;;;;;;;;;;0.50;99.90;;;-0.49;100.00;96271.13;10489447;28;1925;-70
2022/01/16 01:55:34;;;;;;;;;;;0.40;99.90;;;-0.51;100.00;96246.72;10483488;28;1837;-67
2022/01/16 02:00:37;;;;;;;;;;;0.50;99.90;;;-0.50;100.00;96261.56;10481768;28;1937;-69
2022/01/16 02:05:41;;;;;;;;;;;0.50;99.90;;;-0.45;100.00;96275.81;10483864;28;1769;-69
2022/01/16 02:10:45;;;;;;;;;;;0.50;99.90;;;-0.37;100.00;96290.72;10475957;28;1607;-70
2022/01/16 02:32:29;;;;;;;;;;;0.50;99.90;;;-0.57;100.00;96262.34;10489086;28;1825;-69
2022/01/16 02:37:32;;;;;;;;;;;0.60;99.90;;;-0.52;100.00;96266.22;10490024;28;1981;-69
2022/01/16 02:42:39;;;;;;;;;;;0.50;99.90;;;-0.60;100.00;96240.75;10484495;28;1492;-69
2022/01/16 02:47:43;;;;;;;;;;;0.50;99.90;;;-0.59;100.00;96247.69;10460634;28;1964;-69
2022/01/16 02:52:57;;;;;;;;;;;0.50;99.90;;;-0.54;100.00;96229.44;10490292;28;2018;-70
2022/01/16 02:58:01;;;;;;;;;;;0.40;99.90;;;-0.69;100.00;96231.38;10462267;28;1994;-69
2022/01/16 03:03:04;;;;;;;;;;;0.40;99.90;;;-0.61;100.00;96221.47;10458987;28;1932;-69
2022/01/16 03:08:07;;;;;;;;;;;0.40;99.90;;;-0.56;100.00;96213.78;10462817;28;2042;-68
2022/01/16 03:13:11;;;;;;;;;;;0.40;99.90;;;-0.57;100.00;96214.81;10469997;28;1783;-69
2022/01/16 03:23:46;;;;;;;;;;;0.40;99.90;;;-0.57;100.00;96204.25;10414779;28;1825;-68
2022/01/16 03:28:50;;;;;;;;;;;0.40;99.90;;;-0.58;100.00;96201.78;10492959;28;1928;-70
2022/01/16 03:33:53;;;;;;;;;;;0.40;99.90;;;-0.46;100.00;96192.31;10505744;28;1883;-68
2022/01/16 03:38:55;;;;;;;;;;;0.40;99.90;;;-0.50;100.00;96195.56;10480085;28;2022;-68
2022/01/16 03:44:01;;;;;;;;;;;0.40;99.90;;;-0.51;100.00;96183.34;10507619;28;1588;-69
2022/01/16 03:49:04;;;;;;;;;;;0.40;99.90;;;-0.40;100.00;96178.31;10502978;28;1945;-70
2022/01/16 03:54:07;;;;;;;;;;;0.40;99.90;;;-0.43;100.00;96181.38;10494147;28;2122;-69
2022/01/16 03:59:10;;;;;;;;;;;0.50;99.90;;;-0.50;100.00;96180.50;10481174;28;2215;-68
2022/01/16 04:04:13;;;;;;;;;;;0.50;99.90;;;-0.49;100.00;96187.44;10476541;28;1975;-70
2022/01/16 04:09:15;;;;;;;;;;;0.60;99.90;;;-0.53;100.00;96203.84;10470940;28;1662;-68
2022/01/16 04:14:23;;;;;;;;;;;0.50;99.90;;;-0.43;100.00;96204.31;10495378;28;1952;-68
2022/01/16 04:19:26;;;;;;;;;;;0.60;99.90;;;-0.44;100.00;96219.34;10467325;28;2119;-71
2022/01/16 04:24:29;;;;;;;;;;;0.60;99.90;;;-0.35;100.00;96212.09;10481459;28;3831;-68
2022/01/16 04:29:32;;;;;;;;;;;0.60;99.90;;;-0.36;100.00;96206.00;10462568;28;1779;-68
2022/01/16 04:34:35;;;;;;;;;;;0.60;99.90;;;-0.36;100.00;96210.47;10488320;28;1479;-70
2022/01/16 04:39:48;;;;;;;;;;;0.60;99.90;;;-0.43;100.00;96207.78;10491340;28;1990;-68
2022/01/16 04:44:52;;;;;;;;;;;0.60;99.90;;;-0.77;100.00;96216.47;10486880;28;1978;-70
2022/01/16 04:49:55;;;;;;;;;;;0.40;99.90;;;-0.85;100.00;96211.34;10474321;28;2122;-68
2022/01/16 04:54:59;;;;;;;;;;;0.20;99.90;;;-0.84;100.00;96215.59;10492341;28;2179;-69
2022/01/16 05:00:02;;;;;;;;;;;0.20;99.90;;;-0.95;100.00;96211.69;10489800;28;1974;-68
2022/01/16 05:05:05;;;;;;;;;;;0.10;99.90;;;-0.92;100.00;96207.84;10485256;28;2042;-70
2022/01/16 05:10:08;;;;;;;;;;;0.00;99.90;;;-1.01;100.00;96216.91;10499939;28;1799;-69
2022/01/16 05:20:32;;;;;;;;;;;-0.10;99.90;;;-1.06;100.00;96224.56;10492273;28;1890;-70
2022/01/16 05:25:35;;;;;;;;;;;-0.10;99.90;;;-0.87;100.00;96218.63;10508844;28;1816;-70
2022/01/16 05:30:38;;;;;;;;;;;0.10;99.90;;;-1.02;100.00;96215.25;10496765;28;1909;-70
2022/01/16 05:35:41;;;;;;;;;;;0.00;99.90;;;-0.89;100.00;96218.84;10494604;28;1880;-70
2022/01/16 05:40:45;;;;;;;;;;;0.00;99.90;;;-1.01;100.00;96232.75;10489634;28;2176;-69
2022/01/16 05:45:49;;;;;;;;;;;0.10;99.90;;;-1.21;100.00;96230.75;10479174;28;1818;-70
2022/01/16 05:50:52;;;;;;;;;;;-0.20;99.90;;;-1.22;100.00;96242.28;10505071;28;1400;-69
2022/01/16 05:55:55;;;;;;;;;;;-0.20;99.90;;;-1.20;100.00;96245.56;10499855;28;1827;-70
2022/01/16 06:00:59;;;;;;;;;;;-0.20;99.90;;;-1.25;100.00;96247.94;10499195;28;1897;-70
2022/01/16 06:06:02;;;;;;;;;;;-0.30;99.90;;;-1.13;100.00;96259.63;10503598;28;1797;-68
2022/01/16 06:11:05;;;;;;;;;;;-0.20;99.90;;;-1.23;100.00;96267.03;10486437;28;1829;-69
2022/01/16 06:16:09;;;;;;;;;;;-0.20;99.90;;;-1.28;100.00;96272.03;10493263;28;1521;-69
2022/01/16 06:21:12;;;;;;;;;;;-0.30;99.90;;;-1.21;100.00;96272.09;10473421;28;1987;-69
2022/01/16 06:26:15;;;;;;;;;;;-0.20;99.90;;;-1.24;100.00;96280.41;10459241;28;1888;-69
2022/01/16 06:31:19;;;;;;;;;;;-0.30;99.90;;;-1.18;100.00;96275.19;10461358;28;1873;-69
2022/01/16 06:36:22;;;;;;;;;;;-0.10;99.90;;;-1.19;100.00;96281.47;10461697;28;1850;-70
2022/01/16 06:41:25;;;;;;;;;;;-0.20;99.90;;;-1.12;100.00;96277.09;10464778;28;1918;-67
2022/01/16 06:46:28;;;;;;;;;;;-0.20;99.90;;;-1.10;100.00;96282.97;10477502;28;1807;-67
2022/01/16 06:51:32;;;;;;;;;;;-0.10;99.90;;;-1.11;100.00;96276.06;10480264;28;1848;-69
2022/01/16 06:56:35;;;;;;;;;;;-0.20;99.90;;;-1.05;100.00;96285.06;10470957;28;1850;-69
2022/01/16 07:01:38;;;;;;;;;;;0.00;99.90;;;-1.02;100.00;96295.22;10493377;28;1989;-69
2022/01/16 07:06:42;;;;;;;;;;;-0.10;99.90;;;-1.21;100.00;96295.84;10463216;28;1837;-71
2022/01/16 07:11:45;;;;;;;;;;;-0.10;99.90;;;-1.36;100.00;96309.09;10461769;28;1946;-69
2022/01/16 07:16:49;;;;;;;;;;;-0.20;99.90;;;-1.48;100.00;96294.75;10466910;28;1778;-69
2022/01/16 07:21:53;;;;;;;;;;;-0.30;99.90;;;-1.47;100.00;96296.38;10466205;28;1983;-69
2022/01/16 07:27:00;;;;;;;;;;;-0.40;99.90;;;-1.54;100.00;96306.03;10463308;28;1882;-69
2022/01/16 07:32:03;;;;;;;;;;;-0.40;99.90;;;-1.70;100.00;96307.06;10468802;28;1514;-68
2022/01/16 07:37:07;;;;;;;;;;;-0.40;99.90;;;-1.78;100.00;96305.34;10473285;28;1825;-68
2022/01/16 07:42:10;;;;;;;;;;;-0.50;99.90;;;-1.73;100.00;96317.97;10475726;28;1977;-70
2022/01/16 07:47:14;;;;;;;;;;;-0.50;99.90;;;-1.67;100.00;96320.69;10480860;28;1535;-69
2022/01/16 07:52:17;;;;;;;;;;;-0.50;99.90;;;-1.70;100.00;96331.59;10478434;28;2017;-70
2022/01/16 07:57:23;;;;;;;;;;;-0.50;99.90;;;-1.58;100.00;96346.97;10466064;28;1818;-70
2022/01/16 08:02:26;;;;;;;;;;;-0.50;99.90;;;-1.48;100.00;96347.47;10467598;28;1912;-70
2022/01/16 08:07:30;;;;;;;;;;;-0.40;99.90;;;-1.38;100.00;96358.56;10464686;28;1698;-69
2022/01/16 08:12:33;;;;;;;;;;;-0.30;99.90;;;-1.39;100.00;96356.94;10474337;28;1821;-69
2022/01/16 08:17:37;;;;;;;;;;;-0.30;99.90;;;-1.32;100.00;96347.28;10480867;28;1956;-70
2022/01/16 08:22:40;;;;;;;;;;;-0.30;99.90;;;-1.31;100.00;96340.19;10482301;28;1848;-69
2022/01/16 08:27:44;;;;;;;;;;;-0.30;99.90;;;-1.29;100.00;96341.63;10473828;28;1871;-69
2022/01/16 08:32:47;;;;;;;;;;;-0.30;99.90;;;-1.16;100.00;96340.94;10476680;28;1865;-69
2022/01/16 08:37:55;;;;;;;;;;;-0.20;99.90;;;-1.11;100.00;96344.66;10482121;28;1895;-69
2022/01/16 08:42:58;;;;;;;;;;;-0.10;99.90;;;-1.00;100.00;96348.66;10486432;28;1741;-70
2022/01/16 08:48:02;;;;;;;;;;;-0.10;99.90;;;-0.72;100.00;96338.16;10484844;28;1803;-69
2022/01/16 08:53:05;;;;;;;;;;;0.10;99.90;;;-0.58;100.00;96331.16;10488687;28;1803;-70
2022/01/16 08:58:09;;;;;;;;;;;0.40;99.90;;;-0.42;100.00;96330.09;10479726;28;1883;-69
2022/01/16 09:03:12;;;;;;;;;;;0.50;99.90;;;-0.35;100.00;96336.25;10481507;28;1152;-70
2022/01/16 09:08:16;;;;;;;;;;;0.70;99.90;;;-0.27;99.75;96341.38;10486908;28;1881;-70
2022/01/16 09:13:19;;;;;;;;;;;0.70;99.90;;;-0.22;98.60;96344.25;10488829;28;1804;-70
2022/01/16 09:18:23;;;;;;;;;;;0.80;99.90;;;-0.06;98.19;96333.41;10496610;28;1918;-70
2022/01/16 09:23:26;;;;;;;;;;;0.80;99.90;;;0.07;97.15;96337.16;10482151;28;1972;-69
2022/01/16 09:28:30;;;;;;;;;;;1.00;99.90;;;0.10;97.21;96342.03;10469439;28;1767;-69
2022/01/16 09:33:34;;;;;;;;;;;1.00;99.90;;;0.10;97.08;96357.91;10475742;28;1528;-69
2022/01/16 09:38:38;;;;;;;;;;;1.10;99.90;;;0.14;96.68;96345.94;10472445;28;1911;-69
2022/01/16 09:43:43;;;;;;;;;;;1.00;99.90;;;0.23;95.66;96350.03;10480631;28;1777;-69
2022/01/16 09:48:47;;;;;;;;;;;1.30;99.90;;;0.42;95.46;96351.97;10478342;28;1901;-69
2022/01/16 09:53:50;;;;;;;;;;;1.30;99.90;;;0.61;94.35;96350.44;10478071;28;1865;-69
2022/01/16 09:58:54;;;;;;;;;;;1.50;99.90;;;0.73;93.15;96342.75;10464793;28;1890;-68
2022/01/16 10:03:57;;;;;;;;;;;1.60;99.90;;;0.89;91.20;96342.44;10476490;28;1753;-70
2022/01/16 10:09:00;;;;;;;;;;;1.80;99.90;;;1.11;89.23;96344.94;10466984;28;1750;-69
2022/01/16 10:14:11;;;;;;;;;;;2.10;99.90;;;1.28;86.41;96351.50;10465173;28;1889;-69
2022/01/16 10:19:14;;;;;;;;;;;2.20;99.90;;;1.43;84.78;96343.34;10462201;28;1975;-69
2022/01/16 10:24:20;;;;;;;;;;;;;;;1.59;83.84;96327.88;10476812;28;1818;-70
2022/01/16 10:29:24;;;;;;;;;;;2.20;99.90;;;1.69;81.63;96324.81;10464269;28;1809;-69
2022/01/16 10:34:28;;;;;;;;;;;2.40;99.90;;;1.80;81.77;96329.50;10480054;28;1721;-68
2022/01/16 10:39:32;;;;;;;;;;;;;;;2.00;80.91;96326.84;10469392;28;1975;-67
2022/01/16 10:44:35;;;;;;;;;;;3.00;99.90;;;2.01;80.37;96325.81;10459416;28;2177;-69
2022/01/16 10:49:39;;;;;;;;;;;3.20;99.90;;;2.20;80.77;96323.34;10466817;28;1775;-68
2022/01/16 10:54:43;;;;;;;;;;;3.20;99.90;;;2.28;81.09;96328.41;10455089;28;1913;-68
2022/01/16 10:59:46;;;;;;;;;;;3.20;99.90;;;2.26;82.28;96336.56;10464521;28;1922;-70
2022/01/16 11:04:49;;;;;;;;;;;3.20;99.90;;;2.36;82.24;96344.13;10461176;28;1818;-67
2022/01/16 11:09:53;;;;;;;;;;;3.30;99.90;;;2.39;81.95;96344.50;10457364;28;1873;-69
2022/01/16 11:14:56;;;;;;;;;;;3.40;99.90;;;2.44;82.35;96347.34;10462850;28;1838;-69
2022/01/16 11:19:59;;;;;;;;;;;3.40;99.90;;;2.46;83.16;96348.97;10461926;28;1972;-70
2022/01/16 11:25:12;;;;;;;;;;;3.40;99.90;;;2.54;82.95;96343.44;10463825;28;1840;-70
2022/01/16 11:30:15;;;;;;;;;;;3.50;99.90;;;2.55;82.10;96356.53;10463481;28;1924;-70
2022/01/16 11:35:19;;;;;;;;;;;3.50;99.90;;;2.56;82.99;96339.56;10460175;28;1860;-70
2022/01/16 11:40:24;;;;;;;;;;;;;;;2.61;83.01;96346.91;10454623;28;1910;-69
2022/01/16 11:45:28;;;;;;;;;;;;;;;2.67;82.53;96346.03;10462330;28;2191;-69
2022/01/16 11:50:31;;;;;;;;;;;4.00;99.90;;;2.71;82.53;96332.16;10458478;28;1775;-69
2022/01/16 11:55:35;;;;;;;;;;;3.80;99.90;;;2.80;82.56;96339.88;10458749;28;1917;-69
2022/01/16 12:00:38;;;;;;;;;;;4.00;99.90;;;2.74;81.82;96346.84;10453836;28;1924;-69
2022/01/16 12:05:42;;;;;;;;;;;3.70;99.90;;;2.83;81.72;96350.91;10464065;28;1885;-70
2022/01/16 12:10:46;;;;;;;;;;;;;;;2.93;82.07;96355.78;10458688;28;1866;-70
2022/01/16 12:15:51;;;;;;;;;;;;;;;2.92;81.91;96364.72;10469784;28;1889;-69
2022/01/16 12:20:55;;;;;;;;;;;;;;;2.95;82.75;96364.34;10463921;28;1891;-70
2022/01/16 12:25:59;;;;;;;;;;;;;;;3.03;82.14;96369.41;10494260;22;2608;-76
2022/01/16 12:31:03;;;;;;;;;;;;;;;3.13;81.97;96371.59;10488300;28;1859;-76
2022/01/16 12:36:11;;;;;;;;;;;4.00;99.90;;;3.25;81.62;96368.06;10486903;28;1831;-76
2022/01/16 12:41:16;;;;;;;;;;;4.10;99.90;;;3.32;79.71;96359.25;10530151;22;1991;-79
2022/01/16 12:46:25;;;;;;;;;;;4.80;99.90;;;3.44;79.10;96365.50;10531232;28;1842;-81
2022/01/16 12:51:44;;;;;;;;;;;4.90;99.90;;;3.49;78.01;96365.66;10549871;28;1807;-80
2022/01/16 12:56:48;;;;;;;;;;;4.40;99.90;;;3.42;78.59;96367.56;10563733;28;1485;-80
2022/01/16 13:02:12;;;;;;;;;;;4.90;99.90;;;3.45;78.16;96367.13;10559894;28;1898;-81
2022/01/16 13:07:16;;;;;;;;;;;4.40;99.90;;;3.51;78.25;96360.97;10555409;28;1681;-80
2022/01/16 13:12:22;;;;;;;;;;;4.50;99.90;;;3.56;77.25;96366.44;10546631;28;1663;-80
2022/01/16 13:17:25;;;;;;;;;;;4.80;99.90;;;3.60;76.66;96364.97;10540336;28;1854;-82
2022/01/16 13:22:36;;;;;;;;;;;4.60;99.90;;;3.67;76.98;96368.41;10536998;28;1974;-76
2022/01/16 13:27:50;;;;;;;;;;;4.70;99.90;;;3.54;76.84;96373.81;10540281;28;1779;-80
2022/01/16 13:32:54;;;;;;;;;;;4.60;99.90;;;3.53;76.55;96373.00;10532228;28;1785;-81
2022/01/16 13:38:02;;;;;;;;;;;4.80;99.90;;;3.52;76.66;96370.56;10542989;28;1913;-79
2022/01/16 13:43:10;;;;;;;;;;;4.70;99.90;;;3.57;75.90;96375.25;10538076;28;2000;-80
2022/01/16 13:48:15;;;;;;;;;;;4.60;99.90;;;3.65;75.25;96389.09;10537836;28;1522;-79
2022/01/16 13:53:21;;;;;;;;;;;4.70;99.90;;;3.64;75.08;96390.13;10540466;28;1765;-80
2022/01/16 13:58:25;;;;;;;;;;;4.70;99.90;;;3.72;74.80;96394.34;10546635;28;1813;-80
2022/01/16 14:03:31;;;;;;;;;;;4.70;99.90;;;3.67;75.13;96394.19;10540643;28;1980;-80
2022/01/16 14:08:39;;;;;;;;;;;4.70;99.90;;;3.68;74.79;96399.28;10532352;28;1848;-80
2022/01/16 14:13:43;;;;;;;;;;;4.70;99.90;;;3.78;73.90;96396.97;10537704;28;1896;-81
2022/01/16 14:19:08;;;;;;;;;;;4.80;99.90;;;3.96;73.70;96414.03;10536763;28;1870;-80
2022/01/16 14:24:12;;;;;;;;;;;;;;;4.09;73.16;96418.44;10529662;28;1846;-78
2022/01/16 14:29:16;;;;;;;;;;;5.00;99.90;;;4.16;72.48;96412.03;10538010;28;1924;-80
2022/01/16 14:34:19;;;;;;;;;;;5.10;99.90;;;4.31;72.22;96407.19;10539214;28;1941;-78
2022/01/16 14:39:23;;;;;;;;;;;5.30;99.90;;;4.30;72.42;96418.06;10535018;28;1945;-79
2022/01/16 14:44:26;;;;;;;;;;;5.20;99.90;;;4.29;72.27;96417.25;10557193;28;2271;-81
2022/01/16 14:49:29;;;;;;;;;;;5.30;99.90;;;4.09;72.79;96427.25;10554048;28;2313;-80
2022/01/16 14:54:33;;;;;;;;;;;5.20;99.90;;;3.98;74.75;96435.91;10565628;28;1890;-83
2022/01/16 14:59:36;;;;;;;;;;;5.10;99.90;;;3.71;75.99;96459.22;10569455;28;1922;-81
2022/01/16 15:04:39;;;;;;;;;;;4.90;99.90;;;3.39;78.81;96482.28;10574080;28;2243;-80
2022/01/16 15:09:43;;;;;;;;;;;5.10;99.90;;;3.10;81.27;96500.34;10562207;28;1902;-79
2022/01/16 15:14:48;;;;;;;;;;;4.40;99.90;;;2.80;84.15;96500.00;10556988;28;1843;-81
2022/01/16 15:19:53;;;;;;;;;;;4.10;99.90;;;2.36;89.44;96508.63;10531690;28;1961;-78
2022/01/16 15:24:56;;;;;;;;;;;3.70;99.90;;;2.34;92.83;96516.75;10533108;28;1925;-78
2022/01/16 15:29:59;;;;;;;;;;;3.50;99.90;;;2.30;90.76;96525.34;10542140;28;1509;-82
2022/01/16 15:35:03;;;;;;;;;;;3.50;99.90;;;2.33;90.81;96530.22;10565377;28;1874;-82
2022/01/16 15:40:06;;;;;;;;;;;3.50;99.90;;;2.29;89.54;96560.84;10572443;28;1959;-82
2022/01/16 15:45:09;;;;;;;;;;;3.50;99.90;;;1.84;94.22;96579.09;10548189;28;1929;-81
2022/01/16 15:50:12;;;;;;;;;;;3.20;99.90;;;1.29;98.06;96596.78;10530625;28;1823;-81
2022/01/16 15:55:15;;;;;;;;;;;2.70;99.90;;;1.03;100.00;96613.34;10536584;28;2336;-80
2022/01/16 16:00:19;;;;;;;;;;;2.40;99.90;;;0.88;100.00;96628.47;10544809;28;1918;-82
2022/01/16 16:05:22;;;;;;;;;;;2.40;99.90;;;0.74;100.00;96625.72;10542206;28;1855;-81
2022/01/16 16:10:25;;;;;;;;;;;1.90;99.90;;;0.63;100.00;96628.06;10565300;28;1718;-82
2022/01/16 16:15:28;;;;;;;;;;;2.40;99.90;;;0.58;100.00;96631.28;10579740;28;1923;-82
2022/01/16 16:20:32;;;;;;;;;;;1.80;99.90;;;0.56;100.00;96648.34;10572486;28;1957;-80
2022/01/16 16:25:35;;;;;;;;;;;1.70;99.90;;;0.66;100.00;96662.09;10537734;28;2054;-81
2022/01/16 16:30:38;;;;;;;;;;;2.40;99.90;;;0.81;100.00;96662.81;10553422;28;2008;-80
2022/01/16 16:35:42;;;;;;;;;;;1.90;99.90;;;0.90;100.00;96674.94;10548144;28;1431;-80
2022/01/16 16:40:45;;;;;;;;;;;2.00;99.90;;;0.99;100.00;96687.00;10543983;28;1976;-82
2022/01/16 16:45:48;;;;;;;;;;;2.10;99.90;;;1.04;99.71;96697.84;10541207;28;1832;-79
2022/01/16 16:50:51;;;;;;;;;;;2.10;99.90;;;1.06;98.82;96698.47;10542398;28;1838;-81
2022/01/16 16:55:55;;;;;;;;;;;2.10;99.90;;;1.12;98.41;96714.63;10540843;28;1889;-80
2022/01/16 17:00:59;;;;;;;;;;;2.20;99.90;;;1.11;97.44;96712.97;10539152;28;1922;-79
2022/01/16 17:06:02;;;;;;;;;;;2.60;99.90;;;1.11;97.40;96707.69;10536869;28;1795;-80
2022/01/16 17:11:05;;;;;;;;;;;2.20;99.90;;;1.14;98.30;96715.25;10535175;28;1847;-82
2022/01/16 17:16:08;;;;;;;;;;;2.20;99.90;;;1.16;97.33;96718.53;10535178;28;1843;-80
2022/01/16 17:21:14;;;;;;;;;;;2.30;99.90;;;1.19;96.63;96723.44;10539901;28;1984;-80
2022/01/16 17:26:17;;;;;;;;;;;2.30;99.90;;;1.15;96.18;96730.13;10535164;28;1879;-81
2022/01/16 17:31:20;;;;;;;;;;;2.20;99.90;;;1.11;96.48;96737.63;10546161;28;1879;-81
2022/01/16 17:36:24;;;;;;;;;;;2.20;99.90;;;1.20;96.35;96735.66;10559858;28;1962;-79
2022/01/16 17:41:28;;;;;;;;;;;2.30;99.90;;;1.22;96.05;96744.25;10557154;28;1973;-79
2022/01/16 17:46:32;;;;;;;;;;;2.30;99.90;;;1.18;95.94;96745.63;10538049;28;2006;-81
2022/01/16 17:51:37;;;;;;;;;;;2.30;99.90;;;1.16;96.21;96745.00;10567275;28;1954;-83
2022/01/16 17:56:40;;;;;;;;;;;2.30;99.90;;;1.25;96.16;96765.03;10572342;28;1572;-82
2022/01/16 18:01:43;;;;;;;;;;;2.30;99.90;;;1.29;96.15;96761.03;10583394;28;2094;-78
2022/01/16 18:06:47;;;;;;;;;;;2.30;99.90;;;1.28;96.03;96769.97;10551892;28;1435;-81
2022/01/16 18:11:51;;;;;;;;;;;2.40;99.90;;;1.27;96.56;96768.31;10556989;28;1609;-82
2022/01/16 18:16:54;;;;;;;;;;;2.40;99.90;;;1.30;96.33;96765.31;10560034;28;1701;-81
2022/01/16 18:21:58;;;;;;;;;;;2.40;99.90;;;1.30;96.29;96774.06;10558752;28;1949;-82
2022/01/16 18:27:01;;;;;;;;;;;2.50;99.90;;;1.41;96.39;96779.88;10564304;28;1387;-81
2022/01/16 18:32:04;;;;;;;;;;;2.50;99.90;;;1.47;95.17;96785.22;10567708;28;1447;-82
2022/01/16 18:37:08;;;;;;;;;;;2.60;99.90;;;1.53;93.74;96776.50;10562926;28;1459;-81
2022/01/16 18:42:11;;;;;;;;;;;2.60;99.90;;;1.57;93.24;96785.69;10573147;22;1898;-77
2022/01/16 18:47:14;;;;;;;;;;;2.70;99.90;;;1.58;92.42;96797.09;10497359;28;1669;-79
2022/01/16 18:52:17;;;;;;;;;;;2.70;99.90;;;1.63;92.41;96808.78;10491723;28;1673;-79
2022/01/16 18:57:20;;;;;;;;;;;2.70;99.90;;;1.73;92.05;96805.00;10488896;28;1416;-78
2022/01/16 19:02:23;;;;;;;;;;;2.80;99.90;;;1.74;90.01;96806.63;10492203;28;2044;-76
2022/01/16 19:07:27;;;;;;;;;;;2.80;99.90;;;1.72;90.49;96798.88;10490806;28;1877;-78
2022/01/16 19:12:30;;;;;;;;;;;2.90;99.90;;;1.84;89.41;96785.88;10486192;28;1776;-75
2022/01/16 19:17:34;;;;;;;;;;;2.90;99.90;;;1.85;90.24;96775.09;10487284;28;1859;-79
2022/01/16 19:22:38;;;;;;;;;;;3.00;99.90;;;1.89;89.23;96767.56;10493542;28;1891;-76
2022/01/16 19:27:41;;;;;;;;;;;3.00;99.90;;;1.94;88.08;96767.81;10484189;28;1855;-79
2022/01/16 19:32:44;;;;;;;;;;;3.00;99.90;;;1.98;87.84;96777.03;10488856;28;1886;-77
2022/01/16 19:37:51;;;;;;;;;;;3.10;99.90;;;2.00;87.41;96760.91;10495894;28;1843;-77
2022/01/16 19:43:06;;;;;;;;;;;3.10;99.90;;;2.04;86.64;96764.81;10494588;28;1914;-79
2022/01/16 19:48:10;;;;;;;;;;;3.10;99.90;;;2.00;86.50;96766.22;10499563;28;1822;-79
2022/01/16 19:53:14;;;;;;;;;;;3.20;99.90;;;2.00;87.27;96774.16;10498276;28;1796;-78
2022/01/16 19:58:18;;;;;;;;;;;3.10;99.90;;;2.03;87.57;96781.72;10515000;28;1820;-79
2022/01/16 20:03:21;;;;;;;;;;;3.10;99.90;;;1.98;86.96;96784.97;10506890;28;1891;-77
2022/01/16 20:08:25;;;;;;;;;;;3.10;99.90;;;1.96;87.51;96783.50;10495253;28;1911;-79
2022/01/16 20:13:28;;;;;;;;;;;3.10;99.90;;;2.01;86.78;96797.81;10497490;28;1855;-77
2022/01/16 20:18:32;;;;;;;;;;;3.10;99.90;;;1.94;87.63;96796.97;10501668;28;1832;-77
2022/01/16 20:23:35;;;;;;;;;;;3.10;99.90;;;1.97;87.28;96799.22;10545121;28;1931;-80
2022/01/16 20:28:40;;;;;;;;;;;3.10;99.90;;;1.98;86.80;96808.03;10524767;28;1811;-79
2022/01/16 20:33:43;;;;;;;;;;;3.10;99.90;;;2.00;87.72;96809.44;10506944;28;1986;-79
2022/01/16 20:38:47;;;;;;;;;;;3.10;99.90;;;1.99;87.25;96810.47;10514430;28;1439;-79
2022/01/16 20:43:50;;;;;;;;;;;3.10;99.90;;;1.95;87.06;96819.81;10539453;28;2221;-80
2022/01/16 20:48:55;;;;;;;;;;;3.10;99.90;;;2.04;86.33;96823.97;10513431;28;1847;-78
2022/01/16 20:54:03;;;;;;;;;;;3.10;99.90;;;2.12;86.59;96837.06;10551013;28;1947;-76
2022/01/16 20:59:06;;;;;;;;;;;3.20;99.90;;;2.04;86.38;96850.50;10519774;28;1475;-76
2022/01/16 21:04:09;;;;;;;;;;;3.20;99.90;;;2.10;86.39;96843.56;10526899;28;1879;-77
2022/01/16 21:09:13;;;;;;;;;;;3.20;99.90;;;2.05;86.85;96841.53;10512058;28;1827;-74
2022/01/16 21:14:16;;;;;;;;;;;3.20;99.90;;;2.03;88.21;96838.22;10494086;28;1828;-74
2022/01/16 21:19:20;;;;;;;;;;;3.20;99.90;;;1.97;88.85;96827.56;10497845;28;1970;-77
2022/01/16 21:24:24;;;;;;;;;;;3.10;99.90;;;1.75;90.58;96809.06;10498892;28;1902;-78
2022/01/16 21:29:27;;;;;;;;;;;3.00;99.90;;;1.81;90.95;96826.03;10530030;28;1873;-79
2022/01/16 21:34:30;;;;;;;;;;;2.90;99.90;;;1.69;90.76;96838.19;10532646;28;1769;-78
2022/01/16 21:39:33;;;;;;;;;;;2.90;99.90;;;1.80;91.65;96837.66;10537207;28;2005;-78
2022/01/16 21:44:36;;;;;;;;;;;3.00;99.90;;;1.81;92.17;96820.75;10529403;28;1898;-79
2022/01/16 21:49:40;;;;;;;;;;;2.90;99.90;;;1.67;93.67;96837.56;10546326;28;1976;-78
2022/01/16 21:54:43;;;;;;;;;;;3.30;99.90;;;1.55;94.71;96830.13;10511224;28;1887;-76
2022/01/16 21:59:47;;;;;;;;;;;2.80;99.90;;;1.69;95.17;96831.03;10506661;28;1744;-78
2022/01/16 22:04:50;;;;;;;;;;;2.70;99.90;;;1.57;96.09;96848.47;10507831;28;1973;-79
2022/01/16 22:09:55;;;;;;;;;;;3.00;99.90;;;1.52;96.62;96850.88;10499004;28;1795;-78
2022/01/16 22:14:58;;;;;;;;;;;2.70;99.90;;;1.56;97.28;96852.97;10489504;28;1892;-77
2022/01/16 22:20:01;;;;;;;;;;;2.70;99.90;;;1.46;97.50;96856.94;10491480;28;1878;-77
2022/01/16 22:25:04;;;;;;;;;;;2.70;99.90;;;1.56;98.51;96858.25;10489024;28;1910;-77
2022/01/16 22:30:07;;;;;;;;;;;2.60;99.90;;;1.48;98.65;96853.09;10491352;28;1823;-80
2022/01/16 22:35:11;;;;;;;;;;;2.70;99.90;;;1.55;98.48;96846.03;10488402;28;1765;-78
2022/01/16 22:40:14;;;;;;;;;;;2.70;99.90;;;1.56;98.42;96855.59;10496221;28;1820;-80
2022/01/16 22:45:17;;;;;;;;;;;2.70;99.90;;;1.65;98.51;96860.75;10488886;28;2019;-77
2022/01/16 22:50:20;;;;;;;;;;;2.70;99.90;;;1.53;98.81;96863.13;10481385;28;1787;-77
2022/01/16 22:55:23;;;;;;;;;;;2.70;99.90;;;1.48;100.00;96876.94;10489910;28;1795;-76
2022/01/16 23:00:26;;;;;;;;;;;2.60;99.90;;;1.43;100.00;96871.38;10490612;28;1903;-79
2022/01/16 23:05:29;;;;;;;;;;;2.60;99.90;;;1.49;100.00;96867.16;10488197;28;2158;-76
2022/01/16 23:10:32;;;;;;;;;;;2.60;99.90;;;1.42;100.00;96859.16;10485727;28;2009;-76
2022/01/16 23:15:35;;;;;;;;;;;2.60;99.90;;;1.39;100.00;96851.56;10486090;28;1850;-78
2022/01/16 23:20:38;;;;;;;;;;;2.60;99.90;;;1.44;100.00;96859.78;10491910;28;1846;-76
2022/01/16 23:25:42;;;;;;;;;;;2.60;99.90;;;1.47;100.00;96867.34;10485659;28;1921;-78
2022/01/16 23:30:45;;;;;;;;;;;2.60;99.90;;;1.55;100.00;96856.63;10483005;28;1878;-74
2022/01/16 23:35:48;;;;;;;;;;;2.70;99.90;;;1.53;100.00;96858.66;10487962;28;1910;-76
2022/01/16 23:40:51;;;;;;;;;;;2.60;99.90;;;1.49;100.00;96865.34;10489509;28;2035;-78
2022/01/16 23:45:56;;;;;;;;;;;2.60;99.90;;;1.52;100.00;96867.59;10482937;28;1992;-75
2022/01/16 23:51:00;;;;;;;;;;;2.60;99.90;;;1.66;100.00;96865.91;10489182;28;1851;-77
2022/01/16 23:56:04;;;;;;;;;;;2.70;99.90;;;1.65;100.00;96868.72;10486661;28;1840;-77
